Time;durP1;ratioP1;P1;durP2;ratioP2;P2;SDS_P1;SDS_P2;PMS_P1;PMS_P2;Temp;Humidity;BMP_temperature;BMP_pressure;BME280_temperature;BME280_humidity;BME280_pressure;Samples;Min_cycle;Max_cycle;Signal;HPM_P1;HPM_P2
2022/05/07 00:00:29;;;;;;;13.70;12.50;;;;;;;10.56;76.19;101657.06;4965629;28;20847;-74
2022/05/07 00:02:55;;;;;;;14.52;13.20;;;;;;;10.52;76.80;101653.81;4951143;28;20020;-74
2022/05/07 00:05:20;;;;;;;14.93;13.43;;;;;;;10.51;76.75;101652.13;4930176;28;21052;-74
2022/05/07 00:07:46;;;;;;;15.00;13.57;;;;;;;10.62;76.07;101648.69;4947745;28;20055;-74
2022/05/07 00:10:11;;;;;;;15.05;13.55;;;;;;;10.54;76.16;101651.88;4964882;28;21127;-73
2022/05/07 00:12:37;;;;;;;14.23;12.82;;;;;;;10.44;76.57;101648.25;4930160;28;21018;-74
2022/05/07 00:15:02;;;;;;;15.63;14.18;;;;;;;10.32;76.94;101645.50;4953707;28;20188;-74
2022/05/07 00:20:12;;;;;;;14.85;13.45;;;;;;;10.55;76.52;101643.00;4957795;28;20013;-75
2022/05/07 00:22:37;;;;;;;14.80;13.43;;;;;;;10.26;76.53;101626.59;4957268;28;20027;-75
2022/05/07 00:25:03;;;;;;;15.32;13.95;;;;;;;10.19;77.86;101626.19;4959306;28;20351;-75
2022/05/07 00:27:28;;;;;;;15.70;14.18;;;;;;;10.23;77.80;101634.75;4958754;28;20014;-72
2022/05/07 00:29:53;;;;;;;15.40;13.82;;;;;;;10.41;77.47;101640.53;4993730;28;20010;-73
2022/05/07 00:32:19;;;;;;;15.50;13.93;;;;;;;10.31;77.41;101635.06;4967031;28;20038;-74
2022/05/07 00:34:44;;;;;;;15.68;13.90;;;;;;;10.42;76.91;101631.63;4958009;28;20034;-74
2022/05/07 00:37:09;;;;;;;16.48;14.77;;;;;;;10.37;76.63;101634.63;4982607;28;20021;-74
2022/05/07 00:39:35;;;;;;;15.60;13.98;;;;;;;10.36;77.00;101626.78;4991521;28;20213;-74
2022/05/07 00:42:04;;;;;;;16.10;14.70;;;;;;;10.34;77.20;101628.69;5010439;28;20017;-74
2022/05/07 00:44:30;;;;;;;15.50;13.90;;;;;;;10.57;76.10;101619.06;4985184;28;20026;-74
2022/05/07 00:46:57;;;;;;;15.05;13.63;;;;;;;10.55;75.90;101621.81;4979930;28;20041;-74
2022/05/07 00:49:22;;;;;;;15.98;14.35;;;;;;;10.38;76.08;101624.88;4979069;28;20029;-73
2022/05/07 00:51:48;;;;;;;15.15;13.75;;;;;;;10.30;76.49;101626.25;4980152;28;21129;-74
2022/05/07 00:54:13;;;;;;;15.05;13.65;;;;;;;10.27;77.15;101623.84;4983951;28;20501;-75
2022/05/07 00:56:39;;;;;;;14.68;13.38;;;;;;;10.22;77.23;101623.31;5021188;28;20821;-73
2022/05/07 00:59:04;;;;;;;14.90;13.27;;;;;;;10.30;77.20;101631.53;4969825;28;20009;-74
2022/05/07 01:01:30;;;;;;;15.45;13.95;;;;;;;10.24;76.68;101625.88;4979383;28;20021;-74
2022/05/07 01:03:55;;;;;;;15.15;13.85;;;;;;;10.14;77.30;101623.06;4990322;28;20032;-74
2022/05/07 01:06:20;;;;;;;16.10;14.60;;;;;;;10.09;76.80;101618.09;4984506;28;20954;-73
2022/05/07 01:08:47;;;;;;;15.57;14.18;;;;;;;10.02;77.83;101623.94;4985119;28;20068;-74
2022/05/07 01:11:12;;;;;;;15.98;14.32;;;;;;;9.95;77.65;101619.09;4985853;28;20831;-74
2022/05/07 01:13:38;;;;;;;15.85;14.30;;;;;;;9.91;78.23;101615.00;4946570;28;20049;-74
2022/05/07 01:16:03;;;;;;;16.55;15.02;;;;;;;9.86;78.38;101614.47;4964216;28;20083;-73
2022/05/07 01:18:30;;;;;;;16.27;14.80;;;;;;;9.85;78.78;101614.59;4998339;28;20025;-73
2022/05/07 01:20:55;;;;;;;16.25;14.85;;;;;;;9.72;78.74;101612.00;5017876;27;20865;-74
2022/05/07 01:23:21;;;;;;;16.48;14.98;;;;;;;9.74;78.82;101615.34;4999129;28;20078;-74
2022/05/07 01:25:46;;;;;;;16.20;14.70;;;;;;;9.74;79.21;101604.78;5027483;28;20193;-74
2022/05/07 01:28:11;;;;;;;16.02;14.65;;;;;;;9.67;79.39;101598.25;4967128;28;20034;-73
2022/05/07 01:30:37;;;;;;;17.08;15.38;;;;;;;9.59;79.88;101599.66;5021749;27;20052;-74
2022/05/07 01:33:03;;;;;;;16.17;14.68;;;;;;;9.58;79.44;101600.59;5002572;28;20021;-74
2022/05/07 01:35:28;;;;;;;16.13;14.50;;;;;;;9.63;79.73;101593.19;4983731;28;20759;-74
2022/05/07 01:37:54;;;;;;;16.40;14.82;;;;;;;9.54;79.21;101593.84;4999467;28;20283;-74
2022/05/07 01:40:19;;;;;;;17.77;16.08;;;;;;;9.51;79.63;101588.78;5009885;28;20621;-75
2022/05/07 01:42:46;;;;;;;17.25;15.63;;;;;;;9.62;79.58;101602.06;4997752;28;20014;-74
2022/05/07 01:45:12;;;;;;;16.33;14.73;;;;;;;9.62;79.41;101596.78;4979930;28;20088;-73
2022/05/07 01:50:25;;;;;;;17.13;15.70;;;;;;;9.58;80.12;101599.75;4977967;28;20029;-75
2022/05/07 01:52:50;;;;;;;17.02;15.57;;;;;;;9.52;79.61;101600.19;4961108;28;20084;-74
2022/05/07 01:55:15;;;;;;;16.63;15.13;;;;;;;9.63;79.30;101598.47;4977748;28;20021;-74
2022/05/07 01:57:41;;;;;;;16.30;14.80;;;;;;;9.89;78.31;101598.38;4973259;28;20086;-73
2022/05/07 02:00:08;;;;;;;15.95;14.55;;;;;;;9.83;77.77;101597.97;4952896;28;20022;-74
2022/05/07 02:02:33;;;;;;;16.35;14.80;;;;;;;9.70;78.55;101601.53;4961088;28;20005;-73
2022/05/07 02:04:59;;;;;;;15.27;13.98;;;;;;;9.73;78.08;101605.72;4996643;28;20036;-74
2022/05/07 02:07:24;;;;;;;16.90;15.15;;;;;;;9.84;77.36;101597.03;5013282;28;20785;-74
2022/05/07 02:09:49;;;;;;;15.57;14.27;;;;;;;9.84;77.43;101595.22;4975850;28;20028;-73
2022/05/07 02:12:15;;;;;;;16.80;15.30;;;;;;;9.79;77.35;101597.38;4959606;27;20033;-74
2022/05/07 02:14:41;;;;;;;16.33;14.93;;;;;;;9.73;77.72;101587.22;4965970;27;20895;-74
2022/05/07 02:17:06;;;;;;;16.70;15.10;;;;;;;9.64;77.99;101588.75;4965959;28;20025;-74
2022/05/07 02:19:31;;;;;;;16.80;15.18;;;;;;;9.56;78.01;101588.44;4973296;28;20018;-73
2022/05/07 02:21:57;;;;;;;18.13;15.57;;;;;;;9.52;78.34;101593.13;4984618;28;20013;-73
2022/05/07 02:24:22;;;;;;;17.48;15.73;;;;;;;9.41;78.88;101593.88;4978012;28;20008;-73
2022/05/07 02:26:47;;;;;;;17.02;15.38;;;;;;;9.27;79.22;101589.53;4995715;28;20024;-74
2022/05/07 02:29:14;;;;;;;16.98;15.43;;;;;;;9.60;78.39;101584.63;4986366;28;20968;-76
2022/05/07 02:31:40;;;;;;;17.42;15.63;;;;;;;9.57;78.26;101601.53;4994147;28;20171;-74
2022/05/07 02:34:05;;;;;;;17.35;15.70;;;;;;;9.44;78.61;101595.44;4996454;28;20021;-73
2022/05/07 02:36:32;;;;;;;17.77;16.08;;;;;;;9.40;79.42;101593.97;4980061;28;20276;-74
2022/05/07 02:38:58;;;;;;;17.38;15.68;;;;;;;9.35;79.20;101593.44;4960044;28;20145;-74
2022/05/07 02:44:07;;;;;;;18.75;16.77;;;;;;;9.16;79.62;101594.72;4991554;28;20355;-74
2022/05/07 02:46:33;;;;;;;17.45;15.85;;;;;;;9.12;79.91;101598.53;4959708;28;20014;-73
2022/05/07 02:48:58;;;;;;;17.90;16.33;;;;;;;9.11;79.63;101591.59;4989959;28;20297;-73
2022/05/07 02:51:24;;;;;;;18.20;16.60;;;;;;;9.04;80.52;101598.22;4985057;28;20474;-73
2022/05/07 02:53:49;;;;;;;18.83;16.90;;;;;;;9.03;80.53;101599.19;4943633;28;20021;-73
2022/05/07 02:56:14;;;;;;;19.05;17.15;;;;;;;9.10;80.53;101596.00;4980198;28;20889;-74
2022/05/07 02:58:40;;;;;;;18.05;16.45;;;;;;;9.19;79.06;101605.06;4960555;28;20049;-73
2022/05/07 03:01:05;;;;;;;17.75;16.10;;;;;;;9.16;79.25;101610.56;4935418;28;20019;-74
2022/05/07 03:03:30;;;;;;;17.35;15.82;;;;;;;9.36;78.38;101595.97;4977323;28;20892;-73
2022/05/07 03:05:58;;;;;;;17.30;15.68;;;;;;;9.16;79.48;101601.81;4950266;28;20214;-73
2022/05/07 03:08:23;;;;;;;18.15;16.35;;;;;;;9.02;80.04;101603.59;4920023;28;20114;-74
2022/05/07 03:10:49;;;;;;;17.98;16.17;;;;;;;8.99;79.73;101606.47;4945299;28;20014;-74
2022/05/07 03:13:15;;;;;;;18.17;16.33;;;;;;;8.99;80.18;101603.00;4952820;28;20453;-73
2022/05/07 03:15:40;;;;;;;17.50;15.88;;;;;;;8.93;80.39;101597.16;4940170;28;20722;-74
2022/05/07 03:18:05;;;;;;;17.65;15.98;;;;;;;8.90;80.39;101600.03;4974285;28;20279;-74
2022/05/07 03:20:31;;;;;;;18.40;16.80;;;;;;;8.92;80.50;101592.00;4958289;28;20231;-73
2022/05/07 03:22:58;;;;;;;18.30;16.42;;;;;;;8.94;80.29;101596.22;4976735;28;20028;-73
2022/05/07 03:25:23;;;;;;;18.77;16.88;;;;;;;8.89;79.93;101593.03;4977795;28;20799;-73
2022/05/07 03:27:49;;;;;;;18.45;16.88;;;;;;;8.82;80.20;101597.06;4958972;28;20041;-74
2022/05/07 03:30:14;;;;;;;18.50;16.80;;;;;;;8.80;80.77;101593.69;4954947;28;20013;-74
2022/05/07 03:32:40;;;;;;;18.98;16.52;;;;;;;8.80;80.33;101588.41;4966651;28;20106;-75
2022/05/07 03:35:05;;;;;;;19.33;17.55;;;;;;;8.74;80.83;101594.94;4960896;28;20025;-74
2022/05/07 03:37:31;;;;;;;19.52;17.23;;;;;;;8.81;80.20;101595.34;4968443;28;20021;-73
2022/05/07 03:39:57;;;;;;;18.65;16.95;;;;;;;8.88;80.20;101596.66;5020677;28;20021;-73
2022/05/07 03:42:22;;;;;;;17.55;15.95;;;;;;;9.08;78.92;101602.34;4996959;28;20040;-74
2022/05/07 03:44:47;;;;;;;18.52;16.67;;;;;;;9.07;78.60;101603.31;4967692;28;20078;-74
2022/05/07 03:47:13;;;;;;;17.83;16.13;;;;;;;8.98;78.71;101599.47;4943478;28;20484;-74
2022/05/07 03:49:38;;;;;;;18.00;16.30;;;;;;;8.79;79.92;101607.00;4938373;28;20018;-74
2022/05/07 03:54:49;;;;;;;18.77;16.98;;;;;;;8.73;79.64;101597.69;4936629;28;20100;-73
2022/05/07 03:57:16;;;;;;;18.55;16.95;;;;;;;8.64;80.27;101598.31;4973223;28;20694;-73
2022/05/07 03:59:41;;;;;;;18.75;16.95;;;;;;;8.52;80.58;101600.81;4941463;28;20010;-74
2022/05/07 04:02:07;;;;;;;21.10;18.88;;;;;;;8.53;80.62;101596.38;4954897;28;20041;-73
2022/05/07 04:04:33;;;;;;;19.20;17.50;;;;;;;8.48;80.72;101599.31;4942614;28;20022;-73
2022/05/07 04:06:58;;;;;;;20.02;18.17;;;;;;;8.47;80.69;101591.53;4959719;28;20012;-76
2022/05/07 04:09:24;;;;;;;20.25;18.33;;;;;;;8.46;81.38;101590.69;4957430;28;20037;-73
2022/05/07 04:11:49;;;;;;;20.27;18.17;;;;;;;8.46;81.76;101600.38;4923542;28;20018;-73
2022/05/07 04:14:15;;;;;;;20.60;18.60;;;;;;;8.47;81.43;101602.06;4941512;28;20011;-73
2022/05/07 04:16:40;;;;;;;20.75;18.55;;;;;;;8.44;81.78;101597.81;4963876;28;20083;-74
2022/05/07 04:19:05;;;;;;;19.55;17.65;;;;;;;8.42;81.50;101599.72;4978165;28;20022;-73
2022/05/07 04:21:32;;;;;;;20.30;18.30;;;;;;;8.48;81.36;101609.88;4978840;28;20018;-74
2022/05/07 04:23:59;;;;;;;20.85;18.75;;;;;;;8.51;81.37;101604.38;4961582;28;20017;-74
2022/05/07 04:26:24;;;;;;;20.45;18.45;;;;;;;8.50;81.49;101612.41;4960101;28;20487;-73
2022/05/07 04:28:49;;;;;;;20.70;18.70;;;;;;;8.55;81.29;101600.59;4964420;28;20015;-74
2022/05/07 04:31:17;;;;;;;19.88;17.85;;;;;;;8.54;81.08;101606.81;4961693;28;20491;-74
2022/05/07 04:33:42;;;;;;;21.08;19.10;;;;;;;8.52;81.37;101606.09;4951256;28;20038;-74
2022/05/07 04:36:07;;;;;;;21.23;19.20;;;;;;;8.59;82.01;101611.81;4945771;28;20304;-74
2022/05/07 04:38:33;;;;;;;20.95;18.95;;;;;;;8.64;81.98;101606.22;4966522;28;20035;-74
2022/05/07 04:40:58;;;;;;;20.75;18.85;;;;;;;8.74;81.85;101610.78;4972103;28;20427;-73
2022/05/07 04:43:23;;;;;;;20.67;18.67;;;;;;;8.80;81.92;101604.25;4975187;28;20534;-75
2022/05/07 04:45:49;;;;;;;21.52;19.27;;;;;;;8.85;81.90;101606.56;4951352;28;20735;-74
2022/05/07 04:48:14;;;;;;;21.20;19.20;;;;;;;8.87;82.09;101607.28;4967975;28;20045;-73
2022/05/07 04:50:40;;;;;;;21.75;19.75;;;;;;;8.88;82.07;101607.22;4965284;28;20022;-73
2022/05/07 04:53:05;;;;;;;21.10;19.17;;;;;;;8.96;82.01;101606.69;4974954;28;20030;-73
2022/05/07 04:55:31;;;;;;;21.90;19.80;;;;;;;8.97;81.88;101610.16;4980814;28;20010;-74
2022/05/07 04:57:57;;;;;;;21.45;19.40;;;;;;;9.03;82.01;101609.75;4962107;28;20007;-73
2022/05/07 05:00:22;;;;;;;20.77;18.65;;;;;;;9.11;82.11;101610.06;4957346;28;20080;-73
2022/05/07 05:02:48;;;;;;;21.92;19.92;;;;;;;9.21;82.02;101618.19;4957295;28;20095;-74
2022/05/07 05:05:13;;;;;;;21.70;19.65;;;;;;;9.26;81.80;101618.72;4987891;28;20102;-73
2022/05/07 05:07:39;;;;;;;22.20;20.02;;;;;;;9.35;82.27;101626.00;4979451;28;20009;-74
2022/05/07 05:10:05;;;;;;;23.45;21.05;;;;;;;9.39;81.74;101621.34;4940402;28;20108;-74
2022/05/07 05:12:30;;;;;;;23.98;21.48;;;;;;;9.40;81.21;101623.03;4944594;28;20038;-73
2022/05/07 05:15:01;;;;;;;24.25;21.80;;;;;;;9.51;81.43;101620.47;4930549;28;20045;-73
2022/05/07 05:17:27;;;;;;;23.38;21.08;;;;;;;9.70;80.86;101625.31;4962097;28;20026;-72
2022/05/07 05:19:52;;;;;;;21.70;19.60;;;;;;;9.97;79.35;101633.06;4956483;28;20967;-73
2022/05/07 05:22:18;;;;;;;21.77;19.55;;;;;;;9.94;79.20;101622.72;4971900;28;20022;-73
2022/05/07 05:24:43;;;;;;;21.42;19.42;;;;;;;9.94;79.98;101630.66;4958278;28;20880;-74
2022/05/07 05:27:08;;;;;;;22.35;20.17;;;;;;;9.93;80.37;101631.59;4958980;28;20236;-74
2022/05/07 05:29:34;;;;;;;23.33;20.88;;;;;;;9.93;80.58;101623.66;4974210;28;20084;-74
2022/05/07 05:31:59;;;;;;;22.10;20.00;;;;;;;9.92;80.16;101624.59;4953902;28;20054;-73
2022/05/07 05:34:25;;;;;;;22.60;20.50;;;;;;;9.99;80.43;101626.81;4991615;28;20010;-73
2022/05/07 05:36:51;;;;;;;22.25;20.15;;;;;;;9.97;80.93;101630.41;4966377;28;20508;-73
2022/05/07 05:39:16;;;;;;;22.25;20.17;;;;;;;10.12;80.23;101635.53;4934385;28;20921;-74
2022/05/07 05:41:44;;;;;;;22.73;20.33;;;;;;;10.13;80.54;101634.59;4984993;28;20048;-73
2022/05/07 05:44:09;;;;;;;21.60;19.65;;;;;;;10.20;80.31;101635.81;4986949;28;20202;-74
2022/05/07 05:46:35;;;;;;;21.67;19.60;;;;;;;10.27;80.43;101637.06;4985577;28;20478;-74
2022/05/07 05:49:00;;;;;;;22.63;20.42;;;;;;;10.33;79.96;101635.75;4942700;28;20002;-74
2022/05/07 05:51:26;;;;;;;24.23;21.88;;;;;;;10.41;79.83;101640.53;4985507;28;20021;-75
2022/05/07 05:53:51;;;;;;;22.80;20.70;;;;;;;10.68;78.94;101642.09;5008253;28;20037;-73
2022/05/07 05:56:17;;;;;;;24.02;21.52;;;;;;;10.70;78.70;101650.75;5019307;28;20956;-73
2022/05/07 05:58:42;;;;;;;23.17;21.00;;;;;;;10.79;77.94;101650.91;4972089;28;20409;-75
2022/05/07 06:01:07;;;;;;;23.17;20.85;;;;;;;10.94;77.87;101654.19;4979054;28;20993;-74
2022/05/07 06:03:33;;;;;;;23.67;21.33;;;;;;;10.94;78.11;101640.97;4981667;28;20028;-74
2022/05/07 06:05:59;;;;;;;25.08;22.15;;;;;;;11.06;77.92;101647.09;4980449;28;20021;-72
2022/05/07 06:08:25;;;;;;;24.83;22.15;;;;;;;11.28;77.29;101656.91;4959009;28;20010;-73
2022/05/07 06:10:52;;;;;;;24.02;21.73;;;;;;;11.39;74.75;101657.88;4957371;28;20009;-74
2022/05/07 06:13:18;;;;;;;23.83;21.33;;;;;;;11.57;74.21;101651.13;4975108;28;20065;-75
2022/05/07 06:15:45;;;;;;;24.38;22.00;;;;;;;11.62;74.93;101654.25;5000312;28;20021;-73
2022/05/07 06:18:11;;;;;;;24.15;21.73;;;;;;;11.65;75.12;101655.81;4993432;28;21152;-75
2022/05/07 06:20:36;;;;;;;23.70;21.17;;;;;;;11.84;74.78;101657.84;4974797;28;20017;-72
2022/05/07 06:23:02;;;;;;;24.38;21.65;;;;;;;11.91;74.80;101655.56;4963548;28;20080;-73
2022/05/07 06:28:11;;;;;;;24.17;21.77;;;;;;;12.23;73.46;101657.47;5001707;28;20129;-71
2022/05/07 06:30:36;;;;;;;24.88;22.23;;;;;;;12.32;72.74;101662.84;4977563;28;20010;-71
2022/05/07 06:33:02;;;;;;;25.38;22.67;;;;;;;12.37;71.69;101658.00;5018702;28;20045;-70
2022/05/07 06:35:28;;;;;;;23.92;21.35;;;;;;;12.55;71.80;101654.81;4980680;28;21123;-71
2022/05/07 06:37:53;;;;;;;23.95;21.75;;;;;;;12.66;71.41;101659.19;4957748;28;20123;-72
2022/05/07 06:40:18;;;;;;;23.27;21.02;;;;;;;12.90;70.91;101661.59;4956323;28;20077;-71
2022/05/07 06:42:45;;;;;;;23.60;21.13;;;;;;;12.97;70.55;101657.50;4961805;28;20014;-72
2022/05/07 06:45:11;;;;;;;23.95;21.45;;;;;;;13.06;70.54;101659.34;4975225;28;20846;-71
2022/05/07 06:47:36;;;;;;;23.35;21.05;;;;;;;13.26;69.68;101664.78;4950244;28;20029;-72
2022/05/07 06:50:02;;;;;;;23.95;21.65;;;;;;;13.29;68.59;101661.84;4927725;28;20050;-72
2022/05/07 06:52:28;;;;;;;22.25;20.08;;;;;;;13.44;68.56;101659.72;4964829;28;20030;-71
2022/05/07 06:54:54;;;;;;;23.13;20.55;;;;;;;13.62;67.89;101661.75;5002682;28;20125;-71
2022/05/07 06:57:19;;;;;;;22.00;19.75;;;;;;;13.66;65.93;101660.50;4998380;28;20153;-72
2022/05/07 06:59:45;;;;;;;20.45;18.52;;;;;;;13.71;65.39;101661.78;4949874;28;20002;-72
2022/05/07 07:02:10;;;;;;;22.20;19.85;;;;;;;13.80;65.54;101661.97;4976766;28;20030;-71
2022/05/07 07:04:35;;;;;;;20.55;18.65;;;;;;;13.90;64.73;101665.47;4998155;28;20026;-70
2022/05/07 07:07:01;;;;;;;21.10;19.05;;;;;;;13.94;64.59;101660.75;4976748;28;20979;-69
2022/05/07 07:09:26;;;;;;;21.33;19.27;;;;;;;14.07;64.29;101662.19;4957970;28;20548;-71
2022/05/07 07:11:51;;;;;;;20.60;18.60;;;;;;;14.30;64.64;101663.72;4963363;28;20013;-70
2022/05/07 07:14:17;;;;;;;20.92;18.85;;;;;;;14.32;64.85;101667.13;4948346;28;20037;-71
2022/05/07 07:16:42;;;;;;;19.42;17.63;;;;;;;14.53;64.67;101661.66;4978785;28;20010;-71
2022/05/07 07:19:09;;;;;;;19.60;17.63;;;;;;;14.70;61.89;101660.97;4964271;28;20906;-71
2022/05/07 07:21:34;;;;;;;19.33;17.52;;;;;;;14.77;62.10;101667.41;4972525;28;20223;-70
2022/05/07 07:24:00;;;;;;;19.00;17.20;;;;;;;14.89;61.88;101659.25;4989699;28;20010;-71
2022/05/07 07:26:25;;;;;;;19.60;17.52;;;;;;;15.01;62.75;101659.97;4996089;28;20401;-71
2022/05/07 07:28:50;;;;;;;19.52;17.67;;;;;;;15.10;62.63;101659.94;4975864;28;20090;-71
2022/05/07 07:31:16;;;;;;;18.40;16.50;;;;;;;15.17;61.27;101654.03;4972011;28;20899;-72
2022/05/07 07:33:42;;;;;;;16.75;15.18;;;;;;;15.37;61.77;101654.78;4976317;28;20513;-72
2022/05/07 07:36:08;;;;;;;17.45;15.52;;;;;;;15.44;60.98;101656.75;4970472;28;20010;-72
2022/05/07 07:38:34;;;;;;;17.70;15.88;;;;;;;15.45;59.30;101655.78;4952346;28;20034;-72
2022/05/07 07:41:00;;;;;;;17.13;15.43;;;;;;;15.69;58.28;101666.88;4969544;28;20015;-72
2022/05/07 07:43:25;;;;;;;16.58;14.95;;;;;;;15.79;57.05;101659.69;4968371;28;20018;-72
2022/05/07 07:48:35;;;;;;;;;;;;;;;16.03;57.02;101650.28;4983532;28;20219;-71
2022/05/07 07:51:00;;;;;;;17.65;15.02;;;;;;;16.20;56.27;101653.97;5031757;28;20353;-72
2022/05/07 07:53:26;;;;;;;16.85;14.70;;;;;;;16.31;56.71;101653.75;4990725;28;20087;-71
2022/05/07 07:55:51;;;;;;;16.42;14.82;;;;;;;16.46;55.46;101659.41;5010772;28;20017;-72
2022/05/07 07:58:17;;;;;;;14.77;13.38;;;;;;;16.45;56.06;101655.88;4978470;28;20021;-71
2022/05/07 08:00:44;;;;;;;19.77;14.88;;;;;;;16.58;57.50;101657.31;4990641;28;20146;-71
2022/05/07 08:03:16;;;;;;;16.27;14.50;;;;;;;16.70;57.42;101658.78;4997388;28;20010;-71
2022/05/07 08:05:43;;;;;;;15.40;13.90;;;;;;;16.71;56.25;101654.25;4989303;28;20021;-71
2022/05/07 08:13:41;;;;;;;;;;;;;;;17.15;54.32;101659.63;5022420;28;20085;-72
2022/05/07 08:16:07;;;;;;;17.00;13.77;;;;;;;17.25;53.14;101656.84;5015195;28;19933;-71
2022/05/07 08:18:33;;;;;;;16.65;13.30;;;;;;;17.34;53.03;101656.75;4994910;28;20512;-71
2022/05/07 08:20:58;;;;;;;21.10;13.77;;;;;;;17.42;53.51;101661.28;4983154;28;20002;-72
2022/05/07 08:23:25;;;;;;;16.08;13.98;;;;;;;17.53;54.23;101670.88;4999327;28;20018;-71
2022/05/07 08:25:51;;;;;;;18.75;14.07;;;;;;;17.67;54.86;101664.91;4984796;28;20021;-72
2022/05/07 08:28:17;;;;;;;17.88;14.80;;;;;;;17.81;55.91;101660.78;4985757;28;21022;-71
2022/05/07 08:30:42;;;;;;;16.17;13.88;;;;;;;18.09;54.76;101662.38;4987774;28;20013;-71
2022/05/07 08:33:07;;;;;;;15.95;13.30;;;;;;;18.13;52.61;101667.25;5037547;27;20021;-72
2022/05/07 08:35:33;;;;;;;14.75;13.25;;;;;;;18.25;51.32;101658.94;4991125;27;20219;-71
2022/05/07 08:37:58;;;;;;;15.68;13.80;;;;;;;18.33;50.15;101672.31;5025571;27;20048;-72
2022/05/07 08:40:24;;;;;;;18.23;14.75;;;;;;;18.32;49.78;101665.28;5006437;27;20442;-72
2022/05/07 08:42:50;;;;;;;17.98;15.40;;;;;;;18.36;49.68;101663.97;4985255;28;20074;-72
2022/05/07 08:45:15;;;;;;;15.32;13.70;;;;;;;18.36;49.79;101658.59;4984436;28;20270;-70
2022/05/07 08:47:41;;;;;;;15.48;13.82;;;;;;;18.42;50.93;101662.47;4970789;28;20024;-71
2022/05/07 08:50:10;;;;;;;15.25;13.68;;;;;;;18.64;50.27;101660.94;4987056;28;20022;-72
2022/05/07 08:52:38;;;;;;;15.70;13.82;;;;;;;18.67;49.70;101663.28;4984656;28;20041;-72
2022/05/07 08:55:04;;;;;;;17.63;13.98;;;;;;;18.82;49.73;101653.56;4984071;28;20021;-71
2022/05/07 08:57:30;;;;;;;16.23;14.52;;;;;;;19.05;51.63;101650.25;4990542;28;20036;-71
2022/05/07 08:59:55;;;;;;;15.15;13.55;;;;;;;19.34;50.20;101655.00;4986716;28;20060;-72
2022/05/07 09:02:20;;;;;;;16.45;14.70;;;;;;;19.34;48.82;101656.84;5022708;28;20047;-72
2022/05/07 09:04:58;;;;;;;15.32;13.82;;;;;;;19.55;49.80;101656.28;4971413;28;20121;-72
2022/05/07 09:07:24;;;;;;;17.05;14.52;;;;;;;19.51;49.47;101660.31;4971536;28;20025;-72
2022/05/07 09:09:50;;;;;;;16.58;14.10;;;;;;;19.69;49.66;101657.41;4987717;28;20074;-72
2022/05/07 09:12:26;;;;;;;15.07;13.48;;;;;;;19.99;47.99;101655.75;5001567;28;20036;-72
2022/05/07 09:14:51;;;;;;;15.57;13.95;;;;;;;20.04;46.53;101655.25;4993602;28;20817;-72
2022/05/07 09:17:20;;;;;;;18.40;15.68;;;;;;;19.94;47.02;101658.16;4987100;28;20006;-72
2022/05/07 09:19:45;;;;;;;16.02;14.05;;;;;;;19.98;46.01;101651.41;4975151;28;20243;-71
2022/05/07 09:22:11;;;;;;;17.10;15.10;;;;;;;19.66;47.53;101652.41;4978067;28;20017;-73
2022/05/07 09:24:40;;;;;;;16.98;15.18;;;;;;;20.03;47.21;101658.94;5001449;28;20009;-74
2022/05/07 09:27:05;;;;;;;17.95;16.10;;;;;;;20.24;46.86;101656.44;4969593;28;20868;-73
2022/05/07 09:29:31;;;;;;;20.58;17.38;;;;;;;20.37;46.29;101649.63;4961238;28;20026;-71
2022/05/07 09:32:09;;;;;;;19.92;15.35;;;;;;;20.74;45.90;101656.09;4993228;28;20071;-73
2022/05/07 09:37:39;;;;;;;16.80;15.05;;;;;;;21.50;45.66;101647.88;4982569;28;20094;-72
2022/05/07 09:40:06;;;;;;;17.63;14.40;;;;;;;21.62;45.05;101642.91;4980509;28;20964;-74
2022/05/07 09:42:31;;;;;;;15.63;14.00;;;;;;;21.82;42.30;101643.13;4977125;28;20092;-73
2022/05/07 09:44:57;;;;;;;14.63;11.52;;;;;;;22.14;41.44;101649.09;4972435;28;20082;-74
2022/05/07 09:47:22;;;;;;;18.27;11.63;;;;;;;22.09;40.93;101644.25;4977134;28;20007;-71
2022/05/07 09:52:31;;;;;;;;;;;;;;;22.10;40.41;101645.09;4990337;28;20040;-71
2022/05/07 09:57:41;;;;;;;;;;;;;;;22.35;40.82;101636.66;4992204;28;20025;-70
2022/05/07 10:00:08;;;;;;;15.68;12.57;;;;;;;22.46;38.89;101631.59;4994152;28;19904;-71
2022/05/07 10:02:54;;;;;;;18.70;12.52;;;;;;;22.80;41.16;101631.84;5034248;28;20300;-71
2022/05/07 10:05:28;;;;;;;17.20;13.55;;;;;;;22.67;39.52;101629.88;5018092;27;20445;-71
2022/05/07 10:08:05;;;;;;;19.27;13.43;;;;;;;23.22;40.41;101635.47;5031127;28;20425;-71
2022/05/07 10:10:35;;;;;;;14.30;12.07;;;;;;;23.71;39.85;101636.31;4988517;28;20014;-71
2022/05/07 10:13:01;;;;;;;20.58;13.20;;;;;;;24.11;38.20;101633.78;4938383;28;20041;-70
2022/05/07 10:15:26;;;;;;;18.08;14.63;;;;;;;24.10;38.05;101631.25;4975152;28;20029;-71
2022/05/07 10:18:07;;;;;;;20.73;13.82;;;;;;;23.47;38.73;101629.56;4963181;28;20036;-73
2022/05/07 10:20:43;;;;;;;18.77;13.70;;;;;;;23.83;38.83;101632.00;4969078;28;20023;-72
2022/05/07 10:23:09;;;;;;;15.70;12.38;;;;;;;24.48;39.00;101625.25;5009359;27;20462;-72
2022/05/07 10:25:35;;;;;;;19.45;13.75;;;;;;;24.88;35.69;101619.84;4997481;28;20499;-72
2022/05/07 10:28:13;;;;;;;21.02;13.43;;;;;;;25.35;35.50;101620.59;4937341;28;20040;-71
2022/05/07 10:30:55;;;;;;;19.27;14.48;;;;;;;25.57;34.09;101614.06;4964465;28;20825;-71
2022/05/07 10:33:21;;;;;;;19.05;13.52;;;;;;;25.58;36.82;101618.41;4985718;28;20247;-71
2022/05/07 10:35:48;;;;;;;21.90;13.18;;;;;;;25.85;35.72;101619.13;4956354;28;20855;-74
2022/05/07 10:38:13;;;;;;;18.20;12.43;;;;;;;26.36;31.47;101615.44;4976975;28;20059;-74
2022/05/07 10:41:01;;;;;;;17.88;12.63;;;;;;;26.31;32.20;101620.69;4985799;28;20241;-74
2022/05/07 10:43:36;;;;;;;16.75;12.50;;;;;;;26.02;33.11;101606.72;4985688;28;20751;-74
2022/05/07 10:46:08;;;;;;;15.35;12.27;;;;;;;26.76;32.53;101613.47;4997955;28;20040;-74
2022/05/07 10:48:45;;;;;;;16.90;12.35;;;;;;;27.29;32.90;101615.59;5021872;28;20014;-74
2022/05/07 10:51:18;;;;;;;17.33;11.77;;;;;;;27.53;32.59;101607.59;4986829;28;20108;-74
2022/05/07 10:53:43;;;;;;;13.52;11.80;;;;;;;26.84;33.53;101600.41;5002211;28;20087;-73
2022/05/07 10:56:16;;;;;;;17.15;13.13;;;;;;;26.19;34.00;101607.00;4990343;28;20014;-74
2022/05/07 10:58:48;;;;;;;14.52;10.85;;;;;;;26.40;31.58;101605.81;4991982;28;20024;-73
2022/05/07 11:01:15;;;;;;;13.38;12.05;;;;;;;26.64;30.26;101600.59;4971840;28;20025;-73
2022/05/07 11:03:41;;;;;;;13.38;11.18;;;;;;;26.29;30.76;101594.84;5007833;28;20101;-73
2022/05/07 11:06:07;;;;;;;13.60;11.35;;;;;;;25.64;31.88;101596.69;5001635;28;20693;-73
2022/05/07 11:08:32;;;;;;;16.77;11.60;;;;;;;25.29;32.59;101594.31;4958211;28;20087;-72
2022/05/07 11:11:10;;;;;;;15.88;11.82;;;;;;;25.89;32.17;101598.66;4998302;28;20022;-73
2022/05/07 11:13:54;;;;;;;15.85;12.38;;;;;;;26.79;31.22;101596.72;5000416;28;20523;-72
2022/05/07 11:16:20;;;;;;;14.13;12.13;;;;;;;27.30;29.30;101600.97;4970494;28;20014;-72
2022/05/07 11:18:53;;;;;;;13.65;10.93;;;;;;;27.87;29.03;101592.47;4958441;28;20118;-72
2022/05/07 11:21:22;;;;;;;14.50;11.38;;;;;;;27.69;28.79;101590.63;4970294;28;20360;-73
2022/05/07 11:23:54;;;;;;;13.23;10.70;;;;;;;28.03;29.56;101590.16;4988735;28;20575;-72
2022/05/07 11:26:20;;;;;;;12.73;10.95;;;;;;;27.84;28.96;101586.69;4990932;28;20008;-72
2022/05/07 11:28:45;;;;;;;14.48;10.57;;;;;;;28.72;28.90;101581.50;5026676;28;20002;-73
2022/05/07 11:31:27;;;;;;;14.38;10.57;;;;;;;28.64;27.32;101585.41;5004690;28;20503;-73
2022/05/07 11:34:02;;;;;;;12.63;11.20;;;;;;;29.32;29.01;101574.03;5001180;27;20435;-72
2022/05/07 11:36:27;;;;;;;11.32;10.23;;;;;;;29.29;27.42;101576.19;4978981;28;20018;-72
2022/05/07 11:38:59;;;;;;;13.00;10.68;;;;;;;29.18;28.61;101577.03;4964352;28;20175;-72
2022/05/07 11:41:25;;;;;;;12.52;9.57;;;;;;;29.32;29.07;101582.22;4940426;28;20088;-73